sensor_id;sensor_type;location;lat;lon;timestamp;P1;durP1;ratioP1;P2;durP2;ratioP2
6955;SDS011;50345;51.136;16.886;2022-10-31T00:01:02;17.20;;;14.35;;
6955;SDS011;50345;51.136;16.886;2022-10-31T00:03:34;20.70;;;13.50;;
6955;SDS011;50345;51.136;16.886;2022-10-31T00:06:00;19.73;;;13.23;;
6955;SDS011;50345;51.136;16.886;2022-10-31T00:08:26;16.63;;;13.45;;
6955;SDS011;50345;51.136;16.886;2022-10-31T00:10:52;17.85;;;13.82;;
6955;SDS011;50345;51.136;16.886;2022-10-31T00:13:18;17.02;;;13.93;;
6955;SDS011;50345;51.136;16.886;2022-10-31T00:15:44;23.90;;;13.30;;
6955;SDS011;50345;51.136;16.886;2022-10-31T00:18:10;19.48;;;13.30;;
6955;SDS011;50345;51.136;16.886;2022-10-31T00:20:37;17.13;;;13.38;;
6955;SDS011;50345;51.136;16.886;2022-10-31T00:23:03;22.45;;;13.15;;
6955;SDS011;50345;51.136;16.886;2022-10-31T00:25:32;19.17;;;11.75;;
6955;SDS011;50345;51.136;16.886;2022-10-31T00:27:58;13.82;;;11.93;;
6955;SDS011;50345;51.136;16.886;2022-10-31T00:30:24;15.68;;;13.68;;
6955;SDS011;50345;51.136;16.886;2022-10-31T00:32:50;17.83;;;11.65;;
6955;SDS011;50345;51.136;16.886;2022-10-31T00:35:16;16.85;;;13.55;;
6955;SDS011;50345;51.136;16.886;2022-10-31T00:37:42;15.60;;;10.90;;
6955;SDS011;50345;51.136;16.886;2022-10-31T00:40:08;21.58;;;13.63;;
6955;SDS011;50345;51.136;16.886;2022-10-31T00:42:34;17.80;;;13.00;;
6955;SDS011;50345;51.136;16.886;2022-10-31T00:45:00;15.88;;;12.25;;
6955;SDS011;50345;51.136;16.886;2022-10-31T00:47:26;16.75;;;13.57;;
6955;SDS011;50345;51.136;16.886;2022-10-31T00:49:52;15.82;;;12.27;;
6955;SDS011;50345;51.136;16.886;2022-10-31T00:52:18;27.00;;;19.55;;
6955;SDS011;50345;51.136;16.886;2022-10-31T00:54:44;14.75;;;12.80;;
6955;SDS011;50345;51.136;16.886;2022-10-31T00:57:10;18.10;;;14.70;;
6955;SDS011;50345;51.136;16.886;2022-10-31T00:59:36;17.65;;;12.85;;
6955;SDS011;50345;51.136;16.886;2022-10-31T01:02:02;19.77;;;13.30;;
6955;SDS011;50345;51.136;16.886;2022-10-31T01:04:28;23.27;;;12.82;;
6955;SDS011;50345;51.136;16.886;2022-10-31T01:06:54;17.58;;;13.95;;
6955;SDS011;50345;51.136;16.886;2022-10-31T01:09:20;17.17;;;13.23;;
6955;SDS011;50345;51.136;16.886;2022-10-31T01:11:46;17.77;;;13.23;;
6955;SDS011;50345;51.136;16.886;2022-10-31T01:14:12;15.77;;;12.30;;
6955;SDS011;50345;51.136;16.886;2022-10-31T01:16:38;17.48;;;13.05;;
6955;SDS011;50345;51.136;16.886;2022-10-31T01:19:04;20.90;;;12.00;;
6955;SDS011;50345;51.136;16.886;2022-10-31T01:21:30;21.45;;;12.45;;
6955;SDS011;50345;51.136;16.886;2022-10-31T01:23:56;14.68;;;11.30;;
6955;SDS011;50345;51.136;16.886;2022-10-31T01:26:27;17.67;;;11.05;;
6955;SDS011;50345;51.136;16.886;2022-10-31T01:28:55;17.35;;;10.80;;
6955;SDS011;50345;51.136;16.886;2022-10-31T01:31:22;19.17;;;11.82;;
6955;SDS011;50345;51.136;16.886;2022-10-31T01:33:49;14.27;;;11.45;;
6955;SDS011;50345;51.136;16.886;2022-10-31T01:36:19;12.82;;;11.57;;
6955;SDS011;50345;51.136;16.886;2022-10-31T01:38:46;22.80;;;14.00;;
6955;SDS011;50345;51.136;16.886;2022-10-31T01:41:13;16.80;;;13.38;;
6955;SDS011;50345;51.136;16.886;2022-10-31T01:46:15;18.27;;;13.43;;
6955;SDS011;50345;51.136;16.886;2022-10-31T01:48:42;15.80;;;13.38;;
6955;SDS011;50345;51.136;16.886;2022-10-31T01:51:08;21.83;;;13.57;;
6955;SDS011;50345;51.136;16.886;2022-10-31T01:53:35;12.95;;;11.23;;
6955;SDS011;50345;51.136;16.886;2022-10-31T01:56:02;16.52;;;12.23;;
6955;SDS011;50345;51.136;16.886;2022-10-31T01:58:28;22.05;;;12.32;;
6955;SDS011;50345;51.136;16.886;2022-10-31T02:00:57;19.27;;;12.13;;
6955;SDS011;50345;51.136;16.886;2022-10-31T02:03:24;15.23;;;12.25;;
6955;SDS011;50345;51.136;16.886;2022-10-31T02:05:51;13.60;;;11.30;;
6955;SDS011;50345;51.136;16.886;2022-10-31T02:08:29;18.33;;;12.85;;
6955;SDS011;50345;51.136;16.886;2022-10-31T02:10:58;16.80;;;11.93;;
6955;SDS011;50345;51.136;16.886;2022-10-31T02:13:25;15.38;;;11.75;;
6955;SDS011;50345;51.136;16.886;2022-10-31T02:15:53;13.20;;;11.80;;
6955;SDS011;50345;51.136;16.886;2022-10-31T02:18:19;12.85;;;10.95;;
6955;SDS011;50345;51.136;16.886;2022-10-31T02:31:29;37.95;;;21.75;;
6955;SDS011;50345;51.136;16.886;2022-10-31T02:33:58;36.70;;;24.73;;
6955;SDS011;50345;51.136;16.886;2022-10-31T02:36:28;37.40;;;24.00;;
6955;SDS011;50345;51.136;16.886;2022-10-31T02:41:35;60.50;;;37.25;;
6955;SDS011;50345;51.136;16.886;2022-10-31T02:44:05;52.60;;;32.42;;
6955;SDS011;50345;51.136;16.886;2022-10-31T02:49:07;38.65;;;22.50;;
6955;SDS011;50345;51.136;16.886;2022-10-31T02:51:35;36.63;;;24.02;;
6955;SDS011;50345;51.136;16.886;2022-10-31T02:54:01;46.40;;;26.98;;
6955;SDS011;50345;51.136;16.886;2022-10-31T02:56:27;48.33;;;32.63;;
6955;SDS011;50345;51.136;16.886;2022-10-31T02:58:58;49.13;;;31.63;;
6955;SDS011;50345;51.136;16.886;2022-10-31T03:04:03;43.47;;;29.90;;
6955;SDS011;50345;51.136;16.886;2022-10-31T03:09:00;36.87;;;25.20;;
6955;SDS011;50345;51.136;16.886;2022-10-31T03:11:31;27.63;;;18.17;;
6955;SDS011;50345;51.136;16.886;2022-10-31T03:14:00;25.08;;;16.73;;
6955;SDS011;50345;51.136;16.886;2022-10-31T03:16:42;22.92;;;15.57;;
6955;SDS011;50345;51.136;16.886;2022-10-31T03:19:12;24.42;;;15.75;;
6955;SDS011;50345;51.136;16.886;2022-10-31T03:21:41;22.98;;;14.50;;
6955;SDS011;50345;51.136;16.886;2022-10-31T03:24:09;19.08;;;13.93;;
6955;SDS011;50345;51.136;16.886;2022-10-31T03:26:38;17.23;;;12.10;;
6955;SDS011;50345;51.136;16.886;2022-10-31T03:29:08;16.73;;;12.73;;
6955;SDS011;50345;51.136;16.886;2022-10-31T03:31:35;14.30;;;11.82;;
6955;SDS011;50345;51.136;16.886;2022-10-31T03:34:03;20.48;;;14.48;;
6955;SDS011;50345;51.136;16.886;2022-10-31T03:36:30;17.90;;;12.88;;
6955;SDS011;50345;51.136;16.886;2022-10-31T03:38:58;18.27;;;13.05;;
6955;SDS011;50345;51.136;16.886;2022-10-31T03:41:27;16.88;;;14.32;;
6955;SDS011;50345;51.136;16.886;2022-10-31T03:43:55;19.95;;;13.85;;
6955;SDS011;50345;51.136;16.886;2022-10-31T03:46:23;16.73;;;13.43;;
6955;SDS011;50345;51.136;16.886;2022-10-31T03:48:49;18.95;;;13.95;;
6955;SDS011;50345;51.136;16.886;2022-10-31T03:52:02;16.80;;;12.68;;
6955;SDS011;50345;51.136;16.886;2022-10-31T03:54:04;14.15;;;11.50;;
6955;SDS011;50345;51.136;16.886;2022-10-31T03:56:40;12.40;;;11.07;;
6955;SDS011;50345;51.136;16.886;2022-10-31T03:59:08;16.75;;;13.02;;
6955;SDS011;50345;51.136;16.886;2022-10-31T04:01:37;17.10;;;12.85;;
6955;SDS011;50345;51.136;16.886;2022-10-31T04:04:04;15.15;;;12.48;;
6955;SDS011;50345;51.136;16.886;2022-10-31T04:06:30;21.20;;;14.15;;
6955;SDS011;50345;51.136;16.886;2022-10-31T04:08:58;19.13;;;15.15;;
6955;SDS011;50345;51.136;16.886;2022-10-31T04:11:27;18.42;;;15.63;;
6955;SDS011;50345;51.136;16.886;2022-10-31T04:13:54;19.88;;;15.25;;
6955;SDS011;50345;51.136;16.886;2022-10-31T04:16:20;17.60;;;13.82;;
6955;SDS011;50345;51.136;16.886;2022-10-31T04:18:47;19.27;;;14.30;;
6955;SDS011;50345;51.136;16.886;2022-10-31T04:21:13;18.48;;;13.40;;
6955;SDS011;50345;51.136;16.886;2022-10-31T04:23:39;17.52;;;14.15;;
6955;SDS011;50345;51.136;16.886;2022-10-31T04:26:05;14.48;;;12.32;;
6955;SDS011;50345;51.136;16.886;2022-10-31T04:28:31;14.75;;;12.98;;
6955;SDS011;50345;51.136;16.886;2022-10-31T04:30:58;16.70;;;12.80;;
6955;SDS011;50345;51.136;16.886;2022-10-31T04:33:24;14.65;;;12.18;;
6955;SDS011;50345;51.136;16.886;2022-10-31T04:35:50;15.00;;;13.38;;
6955;SDS011;50345;51.136;16.886;2022-10-31T04:38:16;14.75;;;11.60;;
6955;SDS011;50345;51.136;16.886;2022-10-31T04:40:42;16.48;;;12.82;;
6955;SDS011;50345;51.136;16.886;2022-10-31T04:43:08;12.80;;;11.25;;
6955;SDS011;50345;51.136;16.886;2022-10-31T04:45:34;15.40;;;11.85;;
6955;SDS011;50345;51.136;16.886;2022-10-31T04:48:00;14.85;;;11.68;;
6955;SDS011;50345;51.136;16.886;2022-10-31T04:50:26;13.65;;;11.27;;
6955;SDS011;50345;51.136;16.886;2022-10-31T04:52:52;17.38;;;12.00;;
6955;SDS011;50345;51.136;16.886;2022-10-31T04:55:18;12.05;;;10.90;;
6955;SDS011;50345;51.136;16.886;2022-10-31T04:57:45;12.50;;;11.30;;
6955;SDS011;50345;51.136;16.886;2022-10-31T05:00:12;12.90;;;11.05;;
6955;SDS011;50345;51.136;16.886;2022-10-31T05:02:43;12.38;;;11.20;;
6955;SDS011;50345;51.136;16.886;2022-10-31T05:05:09;11.90;;;10.68;;
6955;SDS011;50345;51.136;16.886;2022-10-31T05:07:39;15.70;;;12.88;;
6955;SDS011;50345;51.136;16.886;2022-10-31T05:10:05;26.17;;;20.55;;
6955;SDS011;50345;51.136;16.886;2022-10-31T05:12:31;17.30;;;15.60;;
6955;SDS011;50345;51.136;16.886;2022-10-31T05:14:57;17.40;;;15.07;;
6955;SDS011;50345;51.136;16.886;2022-10-31T05:17:23;18.63;;;12.55;;
6955;SDS011;50345;51.136;16.886;2022-10-31T05:19:49;14.68;;;11.90;;
6955;SDS011;50345;51.136;16.886;2022-10-31T05:22:15;21.95;;;13.43;;
6955;SDS011;50345;51.136;16.886;2022-10-31T05:24:41;14.50;;;11.45;;
6955;SDS011;50345;51.136;16.886;2022-10-31T05:27:07;15.18;;;12.32;;
6955;SDS011;50345;51.136;16.886;2022-10-31T05:29:33;16.27;;;12.70;;
6955;SDS011;50345;51.136;16.886;2022-10-31T05:31:59;14.23;;;11.23;;
6955;SDS011;50345;51.136;16.886;2022-10-31T05:34:25;14.40;;;11.38;;
6955;SDS011;50345;51.136;16.886;2022-10-31T05:36:51;13.18;;;11.85;;
6955;SDS011;50345;51.136;16.886;2022-10-31T05:39:17;12.75;;;11.45;;
6955;SDS011;50345;51.136;16.886;2022-10-31T05:41:43;19.08;;;12.82;;
6955;SDS011;50345;51.136;16.886;2022-10-31T05:44:09;13.48;;;11.02;;
6955;SDS011;50345;51.136;16.886;2022-10-31T05:46:35;17.45;;;12.20;;
6955;SDS011;50345;51.136;16.886;2022-10-31T05:49:02;17.85;;;12.93;;
6955;SDS011;50345;51.136;16.886;2022-10-31T05:51:28;18.48;;;14.05;;
6955;SDS011;50345;51.136;16.886;2022-10-31T05:53:53;18.70;;;13.10;;
6955;SDS011;50345;51.136;16.886;2022-10-31T05:56:19;15.63;;;13.88;;
6955;SDS011;50345;51.136;16.886;2022-10-31T05:58:45;15.07;;;13.27;;
6955;SDS011;50345;51.136;16.886;2022-10-31T06:01:11;18.67;;;12.65;;
6955;SDS011;50345;51.136;16.886;2022-10-31T06:03:38;15.93;;;12.30;;
6955;SDS011;50345;51.136;16.886;2022-10-31T06:06:04;15.48;;;13.82;;
6955;SDS011;50345;51.136;16.886;2022-10-31T06:08:30;14.65;;;11.75;;
6955;SDS011;50345;51.136;16.886;2022-10-31T06:10:56;17.20;;;13.00;;
6955;SDS011;50345;51.136;16.886;2022-10-31T06:13:22;20.17;;;13.85;;
6955;SDS011;50345;51.136;16.886;2022-10-31T06:15:48;22.58;;;11.90;;
6955;SDS011;50345;51.136;16.886;2022-10-31T06:18:14;12.85;;;10.63;;
6955;SDS011;50345;51.136;16.886;2022-10-31T06:20:40;14.80;;;12.30;;
6955;SDS011;50345;51.136;16.886;2022-10-31T06:23:06;19.92;;;13.07;;
6955;SDS011;50345;51.136;16.886;2022-10-31T06:25:32;14.20;;;10.60;;
6955;SDS011;50345;51.136;16.886;2022-10-31T06:27:58;18.42;;;12.45;;
6955;SDS011;50345;51.136;16.886;2022-10-31T06:30:24;14.80;;;11.95;;
6955;SDS011;50345;51.136;16.886;2022-10-31T06:32:50;13.70;;;12.10;;
6955;SDS011;50345;51.136;16.886;2022-10-31T06:35:17;14.35;;;11.65;;
6955;SDS011;50345;51.136;16.886;2022-10-31T06:37:50;17.27;;;11.77;;
6955;SDS011;50345;51.136;16.886;2022-10-31T06:40:16;14.45;;;12.88;;
6955;SDS011;50345;51.136;16.886;2022-10-31T06:42:42;16.27;;;12.05;;
6955;SDS011;50345;51.136;16.886;2022-10-31T06:45:08;16.30;;;12.02;;
6955;SDS011;50345;51.136;16.886;2022-10-31T06:47:34;19.42;;;14.45;;
6955;SDS011;50345;51.136;16.886;2022-10-31T06:50:00;15.25;;;12.60;;
6955;SDS011;50345;51.136;16.886;2022-10-31T06:52:26;17.35;;;13.63;;
6955;SDS011;50345;51.136;16.886;2022-10-31T06:54:52;18.85;;;14.05;;
6955;SDS011;50345;51.136;16.886;2022-10-31T06:57:18;14.13;;;12.63;;
6955;SDS011;50345;51.136;16.886;2022-10-31T06:59:44;22.75;;;12.80;;
6955;SDS011;50345;51.136;16.886;2022-10-31T07:02:10;19.92;;;15.60;;
6955;SDS011;50345;51.136;16.886;2022-10-31T07:04:36;18.42;;;16.23;;
6955;SDS011;50345;51.136;16.886;2022-10-31T07:07:02;21.60;;;16.20;;
6955;SDS011;50345;51.136;16.886;2022-10-31T07:09:29;18.95;;;14.25;;
6955;SDS011;50345;51.136;16.886;2022-10-31T07:11:55;19.67;;;14.35;;
6955;SDS011;50345;51.136;16.886;2022-10-31T07:14:21;21.45;;;16.23;;
6955;SDS011;50345;51.136;16.886;2022-10-31T07:16:50;25.73;;;16.13;;
6955;SDS011;50345;51.136;16.886;2022-10-31T07:19:16;27.65;;;18.50;;
6955;SDS011;50345;51.136;16.886;2022-10-31T07:21:42;23.50;;;18.27;;
6955;SDS011;50345;51.136;16.886;2022-10-31T07:24:08;20.27;;;18.13;;
6955;SDS011;50345;51.136;16.886;2022-10-31T07:26:34;22.70;;;17.27;;
6955;SDS011;50345;51.136;16.886;2022-10-31T07:29:00;22.02;;;16.85;;
6955;SDS011;50345;51.136;16.886;2022-10-31T07:31:26;20.42;;;18.25;;
6955;SDS011;50345;51.136;16.886;2022-10-31T07:33:52;27.23;;;19.30;;
6955;SDS011;50345;51.136;16.886;2022-10-31T07:36:18;28.92;;;19.88;;
6955;SDS011;50345;51.136;16.886;2022-10-31T07:38:44;23.33;;;21.00;;
6955;SDS011;50345;51.136;16.886;2022-10-31T07:41:10;24.33;;;20.23;;
6955;SDS011;50345;51.136;16.886;2022-10-31T07:43:36;28.00;;;22.87;;
6955;SDS011;50345;51.136;16.886;2022-10-31T07:46:02;24.52;;;21.05;;
6955;SDS011;50345;51.136;16.886;2022-10-31T07:48:28;21.83;;;19.13;;
6955;SDS011;50345;51.136;16.886;2022-10-31T07:50:54;21.77;;;17.88;;
6955;SDS011;50345;51.136;16.886;2022-10-31T07:53:20;22.83;;;15.80;;
6955;SDS011;50345;51.136;16.886;2022-10-31T07:55:46;21.98;;;12.20;;
6955;SDS011;50345;51.136;16.886;2022-10-31T07:58:14;18.35;;;13.00;;
6955;SDS011;50345;51.136;16.886;2022-10-31T08:00:41;18.33;;;12.90;;
6955;SDS011;50345;51.136;16.886;2022-10-31T08:03:08;17.02;;;15.23;;
6955;SDS011;50345;51.136;16.886;2022-10-31T08:05:34;12.48;;;10.98;;
6955;SDS011;50345;51.136;16.886;2022-10-31T08:08:01;24.02;;;10.95;;
6955;SDS011;50345;51.136;16.886;2022-10-31T08:10:27;13.05;;;9.48;;
6955;SDS011;50345;51.136;16.886;2022-10-31T08:12:57;16.05;;;8.00;;
6955;SDS011;50345;51.136;16.886;2022-10-31T08:15:24;14.95;;;8.98;;
6955;SDS011;50345;51.136;16.886;2022-10-31T08:17:50;15.75;;;8.80;;
6955;SDS011;50345;51.136;16.886;2022-10-31T08:20:16;14.00;;;8.38;;
6955;SDS011;50345;51.136;16.886;2022-10-31T08:22:42;8.52;;;7.70;;
6955;SDS011;50345;51.136;16.886;2022-10-31T08:25:08;12.90;;;8.00;;
6955;SDS011;50345;51.136;16.886;2022-10-31T08:27:34;10.50;;;7.93;;
6955;SDS011;50345;51.136;16.886;2022-10-31T08:30:00;15.90;;;8.35;;
6955;SDS011;50345;51.136;16.886;2022-10-31T08:32:26;11.40;;;7.60;;
6955;SDS011;50345;51.136;16.886;2022-10-31T08:34:52;11.90;;;8.10;;
6955;SDS011;50345;51.136;16.886;2022-10-31T08:37:18;10.77;;;7.20;;
6955;SDS011;50345;51.136;16.886;2022-10-31T08:39:48;13.88;;;7.10;;
6955;SDS011;50345;51.136;16.886;2022-10-31T08:42:14;7.72;;;6.60;;
6955;SDS011;50345;51.136;16.886;2022-10-31T08:44:40;9.90;;;7.03;;
6955;SDS011;50345;51.136;16.886;2022-10-31T08:47:06;12.13;;;7.03;;
6955;SDS011;50345;51.136;16.886;2022-10-31T08:49:32;11.53;;;6.50;;
6955;SDS011;50345;51.136;16.886;2022-10-31T08:51:58;12.63;;;6.32;;
6955;SDS011;50345;51.136;16.886;2022-10-31T08:54:24;9.77;;;6.57;;
6955;SDS011;50345;51.136;16.886;2022-10-31T08:56:53;10.77;;;6.53;;
6955;SDS011;50345;51.136;16.886;2022-10-31T08:59:20;8.80;;;5.67;;
6955;SDS011;50345;51.136;16.886;2022-10-31T09:01:46;9.10;;;5.80;;
6955;SDS011;50345;51.136;16.886;2022-10-31T09:04:12;8.93;;;5.33;;
6955;SDS011;50345;51.136;16.886;2022-10-31T09:06:38;10.83;;;5.87;;
6955;SDS011;50345;51.136;16.886;2022-10-31T09:09:04;9.10;;;5.30;;
6955;SDS011;50345;51.136;16.886;2022-10-31T09:11:30;7.27;;;5.73;;
6955;SDS011;50345;51.136;16.886;2022-10-31T09:13:56;8.70;;;5.33;;
6955;SDS011;50345;51.136;16.886;2022-10-31T09:16:22;6.97;;;4.77;;
6955;SDS011;50345;51.136;16.886;2022-10-31T09:18:48;12.60;;;5.07;;
6955;SDS011;50345;51.136;16.886;2022-10-31T09:21:14;13.60;;;6.40;;
6955;SDS011;50345;51.136;16.886;2022-10-31T09:23:40;14.33;;;6.30;;
6955;SDS011;50345;51.136;16.886;2022-10-31T09:26:06;7.13;;;4.57;;
6955;SDS011;50345;51.136;16.886;2022-10-31T09:28:32;7.10;;;4.63;;
6955;SDS011;50345;51.136;16.886;2022-10-31T09:30:58;8.07;;;4.87;;
6955;SDS011;50345;51.136;16.886;2022-10-31T09:33:24;7.60;;;4.80;;
6955;SDS011;50345;51.136;16.886;2022-10-31T09:35:50;6.17;;;5.00;;
6955;SDS011;50345;51.136;16.886;2022-10-31T09:38:19;10.53;;;6.87;;
6955;SDS011;50345;51.136;16.886;2022-10-31T09:47:09;8.67;;;5.30;;
6955;SDS011;50345;51.136;16.886;2022-10-31T09:49:32;6.97;;;5.70;;
6955;SDS011;50345;51.136;16.886;2022-10-31T09:52:28;7.87;;;5.70;;
6955;SDS011;50345;51.136;16.886;2022-10-31T09:55:04;9.87;;;5.33;;
6955;SDS011;50345;51.136;16.886;2022-10-31T09:57:32;6.57;;;5.63;;
6955;SDS011;50345;51.136;16.886;2022-10-31T09:59:59;7.40;;;5.50;;
6955;SDS011;50345;51.136;16.886;2022-10-31T10:02:30;12.30;;;6.03;;
6955;SDS011;50345;51.136;16.886;2022-10-31T10:05:02;9.73;;;4.93;;
6955;SDS011;50345;51.136;16.886;2022-10-31T10:10:28;6.43;;;4.83;;
6955;SDS011;50345;51.136;16.886;2022-10-31T10:16:00;7.30;;;5.80;;
6955;SDS011;50345;51.136;16.886;2022-10-31T10:18:52;12.33;;;6.27;;
6955;SDS011;50345;51.136;16.886;2022-10-31T10:30:50;10.60;;;5.67;;
6955;SDS011;50345;51.136;16.886;2022-10-31T10:33:36;9.90;;;5.60;;
6955;SDS011;50345;51.136;16.886;2022-10-31T10:36:13;12.43;;;5.50;;
6955;SDS011;50345;51.136;16.886;2022-10-31T10:41:23;9.27;;;4.87;;
6955;SDS011;50345;51.136;16.886;2022-10-31T10:43:52;8.50;;;6.10;;
6955;SDS011;50345;51.136;16.886;2022-10-31T10:49:13;13.70;;;5.63;;
6955;SDS011;50345;51.136;16.886;2022-10-31T10:54:40;6.07;;;5.40;;
6955;SDS011;50345;51.136;16.886;2022-10-31T10:59:57;9.07;;;4.83;;
6955;SDS011;50345;51.136;16.886;2022-10-31T11:02:27;9.03;;;5.20;;
6955;SDS011;50345;51.136;16.886;2022-10-31T11:04:56;10.67;;;5.20;;
6955;SDS011;50345;51.136;16.886;2022-10-31T11:07:24;10.73;;;5.20;;
6955;SDS011;50345;51.136;16.886;2022-10-31T11:09:50;7.90;;;5.40;;
6955;SDS011;50345;51.136;16.886;2022-10-31T11:12:22;11.53;;;5.30;;
6955;SDS011;50345;51.136;16.886;2022-10-31T11:14:54;5.57;;;5.17;;
6955;SDS011;50345;51.136;16.886;2022-10-31T11:17:34;6.90;;;4.97;;
6955;SDS011;50345;51.136;16.886;2022-10-31T11:22:43;8.30;;;5.97;;
6955;SDS011;50345;51.136;16.886;2022-10-31T11:25:21;8.83;;;5.60;;
6955;SDS011;50345;51.136;16.886;2022-10-31T11:28:02;9.20;;;5.00;;
6955;SDS011;50345;51.136;16.886;2022-10-31T11:30:29;6.63;;;4.10;;
6955;SDS011;50345;51.136;16.886;2022-10-31T11:33:00;8.97;;;5.70;;
6955;SDS011;50345;51.136;16.886;2022-10-31T11:35:26;10.30;;;5.47;;
6955;SDS011;50345;51.136;16.886;2022-10-31T11:37:52;6.83;;;6.03;;
6955;SDS011;50345;51.136;16.886;2022-10-31T11:40:24;8.00;;;5.60;;
6955;SDS011;50345;51.136;16.886;2022-10-31T11:42:52;9.07;;;6.70;;
6955;SDS011;50345;51.136;16.886;2022-10-31T11:47:47;7.80;;;5.43;;
6955;SDS011;50345;51.136;16.886;2022-10-31T11:50:19;8.87;;;5.20;;
6955;SDS011;50345;51.136;16.886;2022-10-31T11:53:01;6.10;;;5.00;;
6955;SDS011;50345;51.136;16.886;2022-10-31T11:55:35;10.90;;;6.23;;
6955;SDS011;50345;51.136;16.886;2022-10-31T11:58:03;11.23;;;5.60;;
6955;SDS011;50345;51.136;16.886;2022-10-31T12:00:33;7.00;;;5.40;;
6955;SDS011;50345;51.136;16.886;2022-10-31T12:06:23;6.50;;;5.67;;
6955;SDS011;50345;51.136;16.886;2022-10-31T12:08:55;5.67;;;4.73;;
6955;SDS011;50345;51.136;16.886;2022-10-31T12:14:08;15.10;;;5.40;;
6955;SDS011;50345;51.136;16.886;2022-10-31T12:25:16;9.60;;;5.97;;
6955;SDS011;50345;51.136;16.886;2022-10-31T12:30:36;8.73;;;4.90;;
6955;SDS011;50345;51.136;16.886;2022-10-31T12:35:36;8.83;;;5.90;;
6955;SDS011;50345;51.136;16.886;2022-10-31T12:54:39;11.73;;;5.67;;
6955;SDS011;50345;51.136;16.886;2022-10-31T12:57:36;11.57;;;5.80;;
6955;SDS011;50345;51.136;16.886;2022-10-31T13:00:16;6.97;;;5.73;;
6955;SDS011;50345;51.136;16.886;2022-10-31T13:05:19;8.30;;;5.53;;
6955;SDS011;50345;51.136;16.886;2022-10-31T13:07:57;7.70;;;6.00;;
6955;SDS011;50345;51.136;16.886;2022-10-31T13:13:31;8.20;;;5.60;;
6955;SDS011;50345;51.136;16.886;2022-10-31T13:16:03;15.57;;;5.70;;
6955;SDS011;50345;51.136;16.886;2022-10-31T13:18:57;8.97;;;5.17;;
6955;SDS011;50345;51.136;16.886;2022-10-31T13:21:38;5.97;;;5.37;;
6955;SDS011;50345;51.136;16.886;2022-10-31T13:24:16;9.10;;;5.27;;
6955;SDS011;50345;51.136;16.886;2022-10-31T13:26:47;9.60;;;5.80;;
6955;SDS011;50345;51.136;16.886;2022-10-31T13:29:29;6.93;;;5.33;;
6955;SDS011;50345;51.136;16.886;2022-10-31T13:31:59;7.23;;;6.00;;
6955;SDS011;50345;51.136;16.886;2022-10-31T13:34:30;7.80;;;6.03;;
6955;SDS011;50345;51.136;16.886;2022-10-31T13:37:22;7.90;;;5.17;;
6955;SDS011;50345;51.136;16.886;2022-10-31T13:40:31;7.40;;;5.90;;
6955;SDS011;50345;51.136;16.886;2022-10-31T13:43:06;9.57;;;6.07;;
6955;SDS011;50345;51.136;16.886;2022-10-31T13:45:52;10.03;;;5.77;;
6955;SDS011;50345;51.136;16.886;2022-10-31T13:50:59;7.07;;;5.97;;
6955;SDS011;50345;51.136;16.886;2022-10-31T13:56:16;9.90;;;6.80;;
6955;SDS011;50345;51.136;16.886;2022-10-31T14:01:29;9.90;;;6.97;;
6955;SDS011;50345;51.136;16.886;2022-10-31T14:06:22;6.77;;;6.17;;
6955;SDS011;50345;51.136;16.886;2022-10-31T14:08:49;6.77;;;6.10;;
6955;SDS011;50345;51.136;16.886;2022-10-31T14:11:26;13.80;;;7.23;;
6955;SDS011;50345;51.136;16.886;2022-10-31T14:13:53;8.90;;;6.10;;
6955;SDS011;50345;51.136;16.886;2022-10-31T14:16:28;12.90;;;6.77;;
6955;SDS011;50345;51.136;16.886;2022-10-31T14:23:50;12.43;;;6.80;;
6955;SDS011;50345;51.136;16.886;2022-10-31T14:28:52;11.97;;;6.63;;
6955;SDS011;50345;51.136;16.886;2022-10-31T14:31:32;12.43;;;6.37;;
6955;SDS011;50345;51.136;16.886;2022-10-31T14:42:19;10.10;;;6.17;;
6955;SDS011;50345;51.136;16.886;2022-10-31T14:51:00;7.73;;;6.70;;
6955;SDS011;50345;51.136;16.886;2022-10-31T14:53:34;7.87;;;6.37;;
6955;SDS011;50345;51.136;16.886;2022-10-31T14:56:01;10.80;;;7.20;;
6955;SDS011;50345;51.136;16.886;2022-10-31T14:58:35;76.37;;;64.53;;
6955;SDS011;50345;51.136;16.886;2022-10-31T15:01:03;16.63;;;14.10;;
6955;SDS011;50345;51.136;16.886;2022-10-31T15:05:56;12.37;;;7.10;;
6955;SDS011;50345;51.136;16.886;2022-10-31T15:09:19;11.17;;;6.27;;
6955;SDS011;50345;51.136;16.886;2022-10-31T15:11:17;11.83;;;5.87;;
6955;SDS011;50345;51.136;16.886;2022-10-31T15:13:48;11.80;;;6.40;;
6955;SDS011;50345;51.136;16.886;2022-10-31T15:16:22;16.23;;;7.37;;
6955;SDS011;50345;51.136;16.886;2022-10-31T15:18:59;7.20;;;5.57;;
6955;SDS011;50345;51.136;16.886;2022-10-31T15:21:29;10.43;;;6.60;;
6955;SDS011;50345;51.136;16.886;2022-10-31T15:23:59;12.80;;;6.50;;
6955;SDS011;50345;51.136;16.886;2022-10-31T15:26:31;41.60;;;37.37;;
6955;SDS011;50345;51.136;16.886;2022-10-31T15:29:01;36.00;;;28.97;;
6955;SDS011;50345;51.136;16.886;2022-10-31T15:31:31;13.13;;;7.80;;
6955;SDS011;50345;51.136;16.886;2022-10-31T15:33:59;28.57;;;22.67;;
6955;SDS011;50345;51.136;16.886;2022-10-31T15:36:30;29.80;;;23.50;;
6955;SDS011;50345;51.136;16.886;2022-10-31T15:38:56;35.70;;;24.37;;
6955;SDS011;50345;51.136;16.886;2022-10-31T15:41:47;19.00;;;13.23;;
6955;SDS011;50345;51.136;16.886;2022-10-31T15:44:22;10.83;;;8.23;;
6955;SDS011;50345;51.136;16.886;2022-10-31T15:47:32;11.15;;;8.45;;
6955;SDS011;50345;51.136;16.886;2022-10-31T15:49:46;9.52;;;7.07;;
6955;SDS011;50345;51.136;16.886;2022-10-31T15:52:14;13.18;;;7.60;;
6955;SDS011;50345;51.136;16.886;2022-10-31T15:54:47;13.55;;;6.72;;
6955;SDS011;50345;51.136;16.886;2022-10-31T15:57:13;8.52;;;6.65;;
6955;SDS011;50345;51.136;16.886;2022-10-31T15:59:40;15.98;;;7.07;;
6955;SDS011;50345;51.136;16.886;2022-10-31T16:02:09;8.50;;;6.15;;
6955;SDS011;50345;51.136;16.886;2022-10-31T16:04:35;9.98;;;6.10;;
6955;SDS011;50345;51.136;16.886;2022-10-31T16:07:03;9.52;;;7.28;;
6955;SDS011;50345;51.136;16.886;2022-10-31T16:09:37;10.52;;;6.72;;
6955;SDS011;50345;51.136;16.886;2022-10-31T16:12:14;8.80;;;6.20;;
6955;SDS011;50345;51.136;16.886;2022-10-31T16:14:41;7.75;;;6.53;;
6955;SDS011;50345;51.136;16.886;2022-10-31T16:17:10;16.45;;;7.28;;
6955;SDS011;50345;51.136;16.886;2022-10-31T16:19:37;13.95;;;8.55;;
6955;SDS011;50345;51.136;16.886;2022-10-31T16:22:05;13.73;;;7.85;;
6955;SDS011;50345;51.136;16.886;2022-10-31T16:24:33;13.05;;;6.47;;
6955;SDS011;50345;51.136;16.886;2022-10-31T16:27:03;10.02;;;6.97;;
6955;SDS011;50345;51.136;16.886;2022-10-31T16:29:42;10.23;;;7.40;;
6955;SDS011;50345;51.136;16.886;2022-10-31T16:37:24;18.15;;;7.75;;
6955;SDS011;50345;51.136;16.886;2022-10-31T16:39:50;12.73;;;8.70;;
6955;SDS011;50345;51.136;16.886;2022-10-31T16:42:16;44.37;;;30.07;;
6955;SDS011;50345;51.136;16.886;2022-10-31T16:44:43;34.38;;;26.75;;
6955;SDS011;50345;51.136;16.886;2022-10-31T16:49:36;32.30;;;25.95;;
6955;SDS011;50345;51.136;16.886;2022-10-31T16:52:02;26.10;;;19.27;;
6955;SDS011;50345;51.136;16.886;2022-10-31T16:54:28;22.92;;;17.20;;
6955;SDS011;50345;51.136;16.886;2022-10-31T16:56:54;22.95;;;14.93;;
6955;SDS011;50345;51.136;16.886;2022-10-31T16:59:20;18.10;;;12.70;;
6955;SDS011;50345;51.136;16.886;2022-10-31T17:01:47;12.02;;;10.75;;
6955;SDS011;50345;51.136;16.886;2022-10-31T17:04:14;18.02;;;9.30;;
6955;SDS011;50345;51.136;16.886;2022-10-31T17:06:41;11.75;;;8.88;;